createdAt,value
2019-05-02T00:03:14.467Z,20.13
2019-05-02T00:08:18.316Z,17.97
2019-05-02T00:13:21.812Z,19.93
2019-05-02T00:18:25.892Z,18.03
2019-05-02T00:23:29.463Z,18.60
2019-05-02T00:28:32.983Z,16.80
2019-05-02T00:33:36.417Z,18.83
2019-05-02T00:38:39.968Z,21.37
2019-05-02T00:43:43.329Z,22.10
2019-05-02T00:48:54.254Z,16.17
2019-05-02T00:53:56.381Z,18.40
2019-05-02T00:59:02.363Z,20.50
2019-05-02T01:04:15.855Z,16.50
2019-05-02T01:09:19.259Z,19.17
2019-05-02T01:14:26.812Z,17.40
2019-05-02T01:19:27.809Z,16.80
2019-05-02T01:24:34.234Z,17.30
2019-05-02T01:29:37.996Z,16.17
2019-05-02T01:34:54.214Z,16.87
2019-05-02T01:39:54.038Z,16.47
2019-05-02T01:44:57.451Z,17.27
2019-05-02T01:50:00.882Z,18.10
2019-05-02T01:55:06.244Z,16.80
2019-05-02T02:00:11.733Z,17.67
2019-05-02T02:05:15.143Z,19.80
2019-05-02T02:10:19.871Z,17.17
2019-05-02T02:15:25.029Z,16.97
2019-05-02T02:20:30.976Z,18.90
2019-05-02T02:25:45.265Z,19.13
2019-05-02T02:30:48.698Z,20.97
2019-05-02T02:35:52.333Z,17.63
2019-05-02T02:40:55.896Z,17.23
2019-05-02T02:46:09.785Z,18.03
2019-05-02T02:51:22.574Z,19.20
2019-05-02T02:56:18.347Z,23.47
2019-05-02T03:01:28.833Z,22.60
2019-05-02T03:06:27.170Z,21.40
2019-05-02T03:11:32.408Z,21.70
2019-05-02T03:16:46.039Z,20.30
2019-05-02T03:22:01.133Z,21.67
2019-05-02T03:26:59.759Z,21.33
2019-05-02T03:32:15.134Z,25.23
2019-05-02T03:37:11.378Z,19.83
2019-05-02T03:42:13.655Z,25.83
2019-05-02T03:47:17.138Z,25.00
2019-05-02T03:52:20.565Z,23.13
2019-05-02T03:57:32.921Z,21.13
2019-05-02T04:02:29.465Z,21.33
2019-05-02T04:07:39.355Z,20.30
2019-05-02T04:12:38.328Z,26.27
2019-05-02T04:17:42.796Z,21.10
2019-05-02T04:22:48.951Z,24.23
2019-05-02T04:27:52.167Z,20.93
2019-05-02T04:32:56.164Z,21.43
2019-05-02T04:38:02.707Z,21.60
2019-05-02T04:43:10.993Z,19.53
2019-05-02T04:48:11.118Z,22.57
2019-05-02T04:53:14.565Z,27.63
2019-05-02T04:58:27.596Z,23.30
2019-05-02T05:03:23.124Z,24.90
2019-05-02T05:08:31.733Z,23.30
2019-05-02T05:13:31.714Z,25.90
2019-05-02T05:18:37.601Z,25.37
2019-05-02T05:23:41.948Z,23.40
2019-05-02T05:28:47.546Z,24.60
2019-05-02T05:33:50.579Z,27.43
2019-05-02T05:38:53.991Z,25.70
2019-05-02T05:43:57.564Z,25.60
2019-05-02T05:49:00.923Z,24.97
2019-05-02T05:54:04.634Z,30.43
2019-05-02T05:59:08.061Z,27.07
2019-05-02T06:04:13.864Z,26.67
2019-05-02T06:09:16.638Z,24.73
2019-05-02T06:14:24.780Z,28.93
2019-05-02T06:19:25.283Z,26.87
2019-05-02T06:24:28.728Z,28.83
2019-05-02T06:29:32.131Z,26.77
2019-05-02T06:34:38.734Z,26.37
2019-05-02T06:39:40.890Z,27.33
2019-05-02T06:44:44.337Z,28.87
2019-05-02T06:49:47.766Z,31.00
2019-05-02T06:54:54.111Z,30.40
2019-05-02T06:59:56.484Z,26.67
2019-05-02T07:05:01.131Z,28.60
2019-05-02T07:10:08.868Z,25.33
2019-05-02T07:15:14.575Z,26.77
2019-05-02T07:20:18.445Z,24.33
2019-05-02T07:25:21.880Z,24.87
2019-05-02T07:30:30.016Z,28.53
2019-05-02T07:35:30.916Z,25.43
2019-05-02T07:40:34.377Z,25.33
2019-05-02T07:45:40.207Z,28.80
2019-05-02T07:50:46.592Z,27.73
2019-05-02T07:55:49.292Z,27.33
2019-05-02T08:00:52.802Z,25.37
2019-05-02T08:05:58.659Z,27.43
2019-05-02T08:11:02.889Z,29.17
2019-05-02T08:16:06.491Z,29.90
2019-05-02T08:21:09.928Z,29.80
2019-05-02T08:26:16.476Z,31.00
2019-05-02T08:31:20.772Z,30.07
2019-05-02T08:36:23.642Z,29.93
2019-05-02T08:41:27.130Z,33.63
2019-05-02T08:46:30.563Z,32.53
2019-05-02T08:51:33.989Z,34.70
2019-05-02T08:56:37.415Z,29.77
2019-05-02T09:01:44.731Z,34.47
2019-05-02T09:06:46.143Z,34.93
2019-05-02T09:12:03.307Z,35.53
2019-05-02T09:16:54.772Z,35.17
2019-05-02T09:21:58.181Z,33.33
2019-05-02T09:27:02.489Z,30.93
2019-05-02T09:32:06.092Z,31.43
2019-05-02T09:37:12.006Z,31.50
2019-05-02T09:42:18.858Z,31.83
2019-05-02T09:47:27.239Z,30.00
2019-05-02T09:52:34.097Z,30.40
2019-05-02T09:57:34.621Z,29.37
2019-05-02T10:02:38.121Z,30.10
2019-05-02T10:07:42.007Z,31.73
2019-05-02T10:12:45.542Z,27.90
2019-05-02T10:17:48.972Z,30.37
2019-05-02T10:22:53.016Z,27.03
2019-05-02T10:27:56.615Z,29.90
2019-05-02T10:33:00.095Z,26.63
2019-05-02T10:38:03.517Z,28.30
2019-05-02T10:43:06.940Z,29.57
2019-05-02T10:48:22.845Z,27.63
2019-05-02T10:53:15.849Z,26.63
2019-05-02T10:58:26.257Z,19.20
2019-05-02T11:03:26.195Z,21.47
2019-05-02T11:08:31.705Z,21.37
2019-05-02T11:13:39.025Z,19.93
2019-05-02T11:18:52.262Z,23.43
2019-05-02T11:23:55.264Z,20.67
2019-05-02T11:28:58.865Z,23.77
2019-05-02T11:34:02.266Z,20.60
2019-05-02T11:39:16.829Z,18.83
2019-05-02T11:44:13.171Z,20.00
2019-05-02T11:49:16.592Z,18.67
2019-05-02T11:54:20.021Z,19.50
2019-05-02T11:59:27.983Z,18.77
2019-05-02T12:04:28.829Z,16.40
2019-05-02T12:09:32.254Z,15.87
2019-05-02T12:14:36.503Z,17.27
2019-05-02T12:19:39.975Z,15.17
2019-05-02T12:24:45.377Z,16.80
2019-05-02T12:29:50.185Z,15.90
2019-05-02T12:34:53.771Z,15.07
2019-05-02T12:39:57.198Z,15.47
2019-05-02T12:45:02.720Z,15.30
2019-05-02T12:50:06.722Z,13.60
2019-05-02T12:55:10.346Z,15.70
2019-05-02T13:00:18.497Z,15.97
2019-05-02T13:05:22.229Z,14.97
2019-05-02T13:10:45.431Z,15.27
2019-05-02T13:15:48.940Z,16.17
2019-05-02T13:20:52.872Z,15.67
2019-05-02T13:25:56.593Z,13.93
2019-05-02T13:31:17.714Z,15.00
2019-05-02T13:36:45.752Z,15.47
2019-05-02T13:41:49.520Z,14.40
2019-05-02T13:46:53.561Z,12.77
2019-05-02T13:51:57.171Z,11.80
2019-05-02T13:57:02.967Z,12.47
2019-05-02T14:02:07.341Z,15.17
2019-05-02T14:07:13.233Z,15.73
2019-05-02T14:12:17.643Z,15.43
2019-05-02T14:17:24.381Z,14.93
2019-05-02T14:22:29.473Z,17.03
2019-05-02T14:27:33.038Z,17.97
2019-05-02T14:32:36.475Z,16.30
2019-05-02T14:37:42.130Z,17.70
2019-05-02T14:42:45.658Z,19.80
2019-05-02T14:47:49.771Z,20.93
2019-05-02T14:52:55.937Z,23.13
2019-05-02T14:58:04.086Z,26.27
2019-05-02T15:03:06.061Z,27.70
2019-05-02T15:08:09.477Z,26.47
2019-05-02T15:13:12.911Z,32.17
2019-05-02T15:18:17.622Z,31.37
2019-05-02T15:23:22.720Z,31.07
2019-05-02T15:28:31.948Z,28.40
2019-05-02T15:33:32.184Z,30.13
2019-05-02T15:38:37.143Z,34.57
2019-05-02T15:43:44.208Z,30.23
2019-05-02T15:48:46.807Z,35.27
2019-05-02T15:54:05.377Z,33.70
2019-05-02T15:59:04.759Z,31.33
2019-05-02T16:04:06.784Z,30.77
2019-05-02T16:09:11.864Z,32.07
2019-05-02T16:14:15.415Z,33.00
2019-05-02T16:19:24.671Z,33.67
2019-05-02T16:24:25.464Z,33.20
2019-05-02T16:29:29.234Z,31.33
2019-05-02T16:34:35.303Z,31.83
2019-05-02T16:39:42.595Z,32.43
2019-05-02T16:44:43.160Z,32.63
2019-05-02T16:49:47.936Z,42.07
2019-05-02T16:54:52.638Z,34.03
2019-05-02T17:00:01.324Z,23.33
2019-05-02T17:05:08.267Z,26.13
2019-05-02T17:10:14.813Z,23.87
2019-05-02T17:15:31.277Z,18.97
2019-05-02T17:20:33.398Z,21.70
2019-05-02T17:25:36.838Z,19.83
2019-05-02T17:30:41.107Z,19.57
2019-05-02T17:35:49.478Z,18.87
2019-05-02T17:40:54.122Z,15.93
2019-05-02T17:45:56.406Z,17.10
2019-05-02T17:51:04.408Z,15.03
2019-05-02T17:56:14.661Z,14.27
2019-05-02T18:01:14.715Z,14.47
2019-05-02T18:06:30.108Z,13.97
2019-05-02T18:11:23.505Z,12.30
2019-05-02T18:16:27.002Z,14.67
2019-05-02T18:21:32.324Z,13.40
2019-05-02T18:26:35.981Z,14.23
2019-05-02T18:31:43.431Z,12.20
2019-05-02T18:36:44.717Z,13.90
2019-05-02T18:41:48.355Z,13.57
2019-05-02T18:46:51.985Z,13.43
2019-05-02T18:51:57.363Z,12.97
2019-05-02T18:57:02.480Z,12.70
2019-05-02T19:02:05.964Z,16.87
2019-05-02T19:07:12.923Z,18.20
2019-05-02T19:12:22.389Z,19.40
2019-05-02T19:17:21.829Z,18.17
2019-05-02T19:22:25.309Z,18.17
2019-05-02T19:27:46.627Z,19.40
2019-05-02T19:32:50.192Z,21.93
2019-05-02T19:37:55.085Z,22.27
2019-05-02T19:43:03.374Z,22.07
2019-05-02T19:48:04.120Z,20.90
2019-05-02T19:53:14.818Z,21.63
2019-05-02T19:58:13.222Z,20.43
2019-05-02T20:03:21.568Z,21.07
2019-05-02T20:08:24.528Z,17.70
2019-05-02T20:13:29.651Z,18.00
2019-05-02T20:18:34.971Z,18.93
2019-05-02T20:23:37.899Z,17.17
2019-05-02T20:28:42.921Z,18.40
2019-05-02T20:33:46.347Z,17.53
2019-05-02T20:38:49.820Z,14.87
2019-05-02T20:43:53.284Z,12.07
2019-05-02T20:48:56.823Z,11.00
2019-05-02T20:54:01.988Z,10.57
2019-05-02T20:59:05.704Z,8.67
2019-05-02T21:04:09.176Z,9.00
2019-05-02T21:09:22.091Z,8.07
2019-05-02T21:14:25.227Z,7.57
2019-05-02T21:19:28.717Z,6.30
2019-05-02T21:24:32.736Z,7.23
2019-05-02T21:29:36.270Z,5.23
2019-05-02T21:34:42.337Z,5.70
2019-05-02T21:39:45.364Z,5.30
2019-05-02T21:44:48.790Z,4.70
2019-05-02T21:49:56.609Z,4.60
2019-05-02T21:55:01.959Z,5.43
2019-05-02T22:00:16.128Z,4.70
2019-05-02T22:05:22.868Z,4.00
2019-05-02T22:10:26.256Z,5.47
2019-05-02T22:15:29.691Z,5.90
2019-05-02T22:20:33.118Z,5.77
2019-05-02T22:25:36.715Z,5.50
2019-05-02T22:30:40.306Z,6.83
2019-05-02T22:35:44.070Z,5.13
2019-05-02T22:40:49.124Z,5.20
2019-05-02T22:45:52.538Z,5.73
2019-05-02T22:50:55.934Z,5.87
2019-05-02T22:55:59.396Z,4.77
2019-05-02T23:01:04.130Z,4.30
2019-05-02T23:06:07.559Z,4.93
2019-05-02T23:11:12.863Z,4.70
2019-05-02T23:16:16.232Z,4.80
2019-05-02T23:21:21.705Z,4.10
2019-05-02T23:26:38.730Z,4.23
2019-05-02T23:31:42.335Z,3.30
2019-05-02T23:36:45.787Z,4.60
2019-05-02T23:41:49.228Z,3.83
2019-05-02T23:46:52.667Z,4.50
2019-05-02T23:51:56.113Z,3.87
2019-05-02T23:56:59.614Z,4.50
